createdAt,value
2022-10-01T00:01:49.590Z,7.80
2022-10-01T00:04:17.650Z,8.10
2022-10-01T00:06:45.581Z,8.57
2022-10-01T00:09:13.848Z,7.90
2022-10-01T00:11:42.706Z,7.27
2022-10-01T00:14:11.987Z,7.53
2022-10-01T00:16:39.937Z,8.40
2022-10-01T00:19:07.833Z,8.30
2022-10-01T00:21:35.953Z,9.97
2022-10-01T00:24:07.016Z,10.77
2022-10-01T00:26:37.667Z,9.40
2022-10-01T00:29:07.339Z,10.23
2022-10-01T00:31:36.847Z,10.50
2022-10-01T00:34:06.455Z,10.03
2022-10-01T00:36:35.464Z,10.30
2022-10-01T00:39:03.371Z,10.80
2022-10-01T00:41:33.727Z,10.43
2022-10-01T00:44:04.133Z,9.63
2022-10-01T00:46:40.045Z,8.83
2022-10-01T00:49:12.301Z,9.27
2022-10-01T00:51:45.550Z,9.43
2022-10-01T00:54:17.159Z,9.07
2022-10-01T00:56:45.791Z,11.40
2022-10-01T00:59:16.170Z,10.17
2022-10-01T01:01:45.531Z,11.70
2022-10-01T01:04:17.281Z,10.20
2022-10-01T01:06:47.252Z,9.93
2022-10-01T01:09:15.428Z,10.73
2022-10-01T01:11:49.931Z,11.57
2022-10-01T01:14:23.811Z,11.07
2022-10-01T01:16:57.340Z,10.67
2022-10-01T01:19:39.400Z,10.93
2022-10-01T01:22:08.912Z,10.90
2022-10-01T01:24:49.897Z,11.83
2022-10-01T01:27:28.970Z,11.93
2022-10-01T01:30:04.267Z,11.90
2022-10-01T01:32:46.334Z,11.53
2022-10-01T01:35:20.703Z,11.40
2022-10-01T01:37:54.841Z,12.00
2022-10-01T01:40:24.354Z,11.17
2022-10-01T01:42:53.855Z,11.83
2022-10-01T01:45:28.567Z,11.27
2022-10-01T01:47:59.233Z,11.83
2022-10-01T01:50:30.367Z,11.93
2022-10-01T01:52:59.803Z,10.33
2022-10-01T01:55:29.879Z,10.70
2022-10-01T01:57:58.329Z,10.90
2022-10-01T02:00:28.075Z,10.67
2022-10-01T02:02:58.126Z,10.77
2022-10-01T02:05:29.880Z,11.13
2022-10-01T02:08:26.432Z,11.20
2022-10-01T02:11:11.721Z,10.60
2022-10-01T02:13:50.064Z,10.20
2022-10-01T02:16:27.544Z,11.00
2022-10-01T02:19:01.571Z,10.30
2022-10-01T02:21:34.939Z,9.60
2022-10-01T02:24:07.148Z,10.37
2022-10-01T02:26:37.052Z,11.87
2022-10-01T02:29:08.682Z,10.00
2022-10-01T02:31:38.394Z,11.67
2022-10-01T02:34:12.498Z,9.93
2022-10-01T02:36:42.410Z,10.83
2022-10-01T02:39:11.628Z,10.57
2022-10-01T02:41:39.732Z,11.50
2022-10-01T02:44:10.661Z,11.20
2022-10-01T02:46:46.339Z,11.20
2022-10-01T02:49:14.980Z,10.90
2022-10-01T02:51:54.274Z,9.30
2022-10-01T02:54:26.978Z,10.40
2022-10-01T02:57:12.504Z,11.10
2022-10-01T02:59:40.380Z,9.80
2022-10-01T03:02:10.009Z,10.97
2022-10-01T03:04:38.453Z,9.40
2022-10-01T03:07:06.446Z,10.60
2022-10-01T03:09:36.668Z,9.60
2022-10-01T03:12:06.540Z,9.57
2022-10-01T03:14:34.567Z,9.97
2022-10-01T03:17:02.495Z,9.73
2022-10-01T03:19:31.777Z,11.33
2022-10-01T03:21:59.665Z,10.10
2022-10-01T03:24:27.674Z,9.60
2022-10-01T03:26:56.649Z,9.33
2022-10-01T03:29:24.919Z,9.33
2022-10-01T03:31:53.877Z,9.30
2022-10-01T03:34:22.047Z,9.97
2022-10-01T03:36:52.324Z,9.37
2022-10-01T03:39:20.603Z,9.67
2022-10-01T03:41:48.470Z,9.17
2022-10-01T03:44:16.359Z,9.53
2022-10-01T03:46:44.785Z,8.70
2022-10-01T03:49:12.761Z,9.30
2022-10-01T03:51:41.004Z,9.00
2022-10-01T03:54:11.116Z,9.13
2022-10-01T03:56:40.831Z,8.57
2022-10-01T03:59:08.711Z,8.70
2022-10-01T04:01:36.957Z,8.73
2022-10-01T04:04:05.739Z,9.20
2022-10-01T04:06:33.857Z,9.03
2022-10-01T04:09:01.861Z,8.87
2022-10-01T04:11:31.293Z,9.27
2022-10-01T04:13:59.441Z,7.37
2022-10-01T04:16:27.472Z,8.50
2022-10-01T04:18:55.509Z,8.33
2022-10-01T04:21:23.406Z,8.27
2022-10-01T04:23:51.304Z,7.87
2022-10-01T04:26:19.704Z,8.53
2022-10-01T04:28:48.948Z,7.60
2022-10-01T04:31:25.962Z,7.67
2022-10-01T04:33:55.263Z,7.20
2022-10-01T04:36:23.902Z,7.70
2022-10-01T04:38:54.694Z,8.20
2022-10-01T04:41:25.441Z,7.37
2022-10-01T04:43:54.702Z,6.70
2022-10-01T04:46:22.712Z,7.30
2022-10-01T04:48:50.744Z,6.23
2022-10-01T04:51:18.925Z,6.63
2022-10-01T04:53:47.046Z,7.90
2022-10-01T04:56:15.000Z,7.13
2022-10-01T04:58:43.039Z,6.47
2022-10-01T05:01:12.340Z,6.70
2022-10-01T05:03:41.215Z,6.23
2022-10-01T05:06:09.159Z,6.23
2022-10-01T05:08:37.968Z,5.87
2022-10-01T05:11:06.299Z,5.87
2022-10-01T05:13:34.201Z,5.60
2022-10-01T05:16:03.709Z,5.70
2022-10-01T05:18:33.249Z,5.67
2022-10-01T05:21:05.900Z,5.57
2022-10-01T05:23:34.219Z,5.43
2022-10-01T05:26:04.212Z,5.87
2022-10-01T05:28:32.513Z,5.80
2022-10-01T05:31:01.475Z,6.10
2022-10-01T05:33:29.947Z,6.23
2022-10-01T05:35:59.492Z,5.90
2022-10-01T05:38:27.409Z,5.80
2022-10-01T05:40:55.307Z,4.07
2022-10-01T05:43:27.043Z,5.07
2022-10-01T05:45:55.017Z,4.50
2022-10-01T05:48:22.997Z,4.70
2022-10-01T05:50:51.709Z,4.40
2022-10-01T05:53:23.512Z,3.67
2022-10-01T05:55:51.421Z,4.53
2022-10-01T05:58:19.352Z,4.20
2022-10-01T06:00:47.304Z,4.60
2022-10-01T06:03:15.350Z,4.47
2022-10-01T06:05:46.051Z,4.70
2022-10-01T06:08:14.795Z,4.77
2022-10-01T06:10:44.331Z,4.40
2022-10-01T06:13:17.735Z,4.37
2022-10-01T06:15:46.683Z,4.20
2022-10-01T06:18:14.767Z,4.77
2022-10-01T06:20:43.011Z,4.27
2022-10-01T06:23:12.348Z,4.20
2022-10-01T06:25:41.775Z,5.03
2022-10-01T06:28:14.704Z,4.60
2022-10-01T06:30:43.589Z,4.60
2022-10-01T06:33:13.595Z,4.13
2022-10-01T06:35:44.103Z,4.13
2022-10-01T06:38:12.631Z,4.10
2022-10-01T06:40:41.654Z,3.73
2022-10-01T06:43:11.136Z,4.03
2022-10-01T06:45:42.629Z,4.10
2022-10-01T06:48:14.572Z,4.13
2022-10-01T06:50:43.564Z,3.70
2022-10-01T06:53:13.035Z,4.53
2022-10-01T06:55:41.454Z,4.20
2022-10-01T06:58:15.071Z,3.63
2022-10-01T07:00:44.016Z,3.80
2022-10-01T07:03:15.905Z,4.30
2022-10-01T07:05:43.837Z,4.20
2022-10-01T07:08:11.860Z,4.10
2022-10-01T07:10:40.325Z,3.40
2022-10-01T07:13:10.643Z,3.47
2022-10-01T07:15:40.544Z,3.73
2022-10-01T07:18:10.048Z,3.00
2022-10-01T07:20:40.642Z,4.00
2022-10-01T07:23:11.631Z,3.33
2022-10-01T07:25:40.527Z,3.87
2022-10-01T07:28:16.462Z,4.40
2022-10-01T07:30:48.344Z,4.00
2022-10-01T07:33:19.375Z,3.83
2022-10-01T07:35:47.865Z,3.60
2022-10-01T07:38:16.639Z,4.00
2022-10-01T07:40:44.617Z,3.40
2022-10-01T07:43:14.486Z,3.40
2022-10-01T07:45:42.443Z,3.73
2022-10-01T07:48:10.392Z,3.50
2022-10-01T07:50:38.422Z,4.40
2022-10-01T07:53:06.370Z,3.60
2022-10-01T07:55:34.300Z,3.20
2022-10-01T07:58:02.347Z,3.47
2022-10-01T08:00:33.931Z,3.57
2022-10-01T08:03:02.512Z,3.00
2022-10-01T08:05:33.391Z,3.80
2022-10-01T08:08:02.815Z,3.47
2022-10-01T08:10:32.321Z,3.70
2022-10-01T08:13:01.575Z,3.07
2022-10-01T08:15:30.948Z,3.10
2022-10-01T08:18:02.073Z,3.30
2022-10-01T08:20:30.215Z,3.80
2022-10-01T08:23:03.031Z,3.47
2022-10-01T08:25:31.126Z,3.87
2022-10-01T08:28:00.169Z,3.80
2022-10-01T08:30:28.788Z,3.27
2022-10-01T08:32:58.855Z,3.67
2022-10-01T08:35:28.400Z,3.43
2022-10-01T08:37:56.645Z,3.37
2022-10-01T08:40:25.057Z,3.53
2022-10-01T08:42:57.301Z,3.00
2022-10-01T08:45:29.924Z,3.80
2022-10-01T08:48:06.077Z,3.07
2022-10-01T08:50:42.057Z,2.90
2022-10-01T08:53:17.014Z,3.30
2022-10-01T08:55:48.040Z,3.03
2022-10-01T08:58:26.711Z,3.20
2022-10-01T09:00:55.544Z,3.20
2022-10-01T09:03:26.273Z,3.20
2022-10-01T09:06:04.883Z,2.90
2022-10-01T09:08:45.733Z,3.50
2022-10-01T09:11:25.409Z,2.93
2022-10-01T09:14:14.723Z,2.70
2022-10-01T09:16:49.798Z,3.00
2022-10-01T09:19:32.279Z,2.90
2022-10-01T09:22:03.416Z,2.73
2022-10-01T09:24:44.195Z,2.60
2022-10-01T09:27:16.223Z,3.00
2022-10-01T09:29:50.308Z,2.40
2022-10-01T09:32:21.827Z,2.60
2022-10-01T09:34:51.398Z,2.53
2022-10-01T09:37:27.061Z,2.57
2022-10-01T09:40:08.097Z,2.43
2022-10-01T09:42:36.404Z,2.47
2022-10-01T09:45:06.128Z,2.93
2022-10-01T09:47:34.738Z,1.77
2022-10-01T09:50:07.793Z,2.33
2022-10-01T09:52:38.493Z,2.20
2022-10-01T09:55:23.885Z,2.17
2022-10-01T09:57:58.714Z,2.13
2022-10-01T10:00:27.730Z,2.13
2022-10-01T10:02:56.749Z,2.27
2022-10-01T10:05:28.293Z,1.63
2022-10-01T10:07:58.788Z,1.87
2022-10-01T10:10:30.575Z,1.80
2022-10-01T10:13:02.655Z,1.50
2022-10-01T10:15:33.144Z,1.67
2022-10-01T10:18:07.931Z,1.70
2022-10-01T10:20:41.427Z,1.90
2022-10-01T10:23:15.187Z,1.80
2022-10-01T10:25:43.414Z,1.70
2022-10-01T10:28:20.996Z,2.27
2022-10-01T10:30:49.969Z,1.90
2022-10-01T10:33:20.789Z,2.07
2022-10-01T10:36:01.192Z,1.93
2022-10-01T10:38:33.591Z,1.93
2022-10-01T10:41:03.776Z,2.13
2022-10-01T10:43:35.357Z,2.00
2022-10-01T10:46:03.792Z,2.20
2022-10-01T10:48:36.835Z,2.00
2022-10-01T10:51:07.186Z,1.73
2022-10-01T10:53:43.805Z,2.23
2022-10-01T10:56:21.854Z,2.00
2022-10-01T10:58:50.677Z,2.10
2022-10-01T11:01:25.664Z,1.97
2022-10-01T11:03:56.467Z,1.77
2022-10-01T11:06:26.128Z,1.70
2022-10-01T11:09:01.461Z,2.50
2022-10-01T11:11:45.353Z,1.80
2022-10-01T11:14:25.039Z,1.70
2022-10-01T11:17:06.013Z,2.00
2022-10-01T11:19:46.102Z,1.87
2022-10-01T11:22:42.037Z,1.77
2022-10-01T11:25:20.323Z,1.80
2022-10-01T11:27:58.470Z,1.90
2022-10-01T11:30:31.002Z,1.60
2022-10-01T11:33:10.651Z,1.30
2022-10-01T11:35:55.244Z,1.53
2022-10-01T11:38:41.709Z,1.57
2022-10-01T11:41:21.179Z,1.70
2022-10-01T11:43:53.047Z,1.50
2022-10-01T11:46:32.076Z,1.37
2022-10-01T11:49:09.769Z,1.60
2022-10-01T11:51:43.706Z,1.30
2022-10-01T11:54:16.668Z,1.53
2022-10-01T11:57:07.492Z,1.60
2022-10-01T11:59:38.528Z,1.50
2022-10-01T12:02:16.067Z,1.83
2022-10-01T12:04:50.650Z,1.60
2022-10-01T12:07:26.778Z,1.53
2022-10-01T12:10:01.723Z,1.40
2022-10-01T12:12:36.963Z,1.83
2022-10-01T12:15:11.006Z,1.57
2022-10-01T12:17:45.183Z,1.87
2022-10-01T12:20:24.176Z,2.10
2022-10-01T12:22:54.099Z,1.73
2022-10-01T12:25:30.223Z,1.90
2022-10-01T12:28:05.504Z,2.23
2022-10-01T12:30:41.963Z,1.60
2022-10-01T12:33:39.932Z,2.17
2022-10-01T12:36:20.120Z,2.30
2022-10-01T12:39:15.062Z,2.00
2022-10-01T12:41:52.987Z,1.80
2022-10-01T12:44:41.024Z,1.97
2022-10-01T12:47:18.919Z,1.70
2022-10-01T12:49:57.378Z,1.90
2022-10-01T12:52:40.269Z,1.93
2022-10-01T12:55:39.250Z,1.63
2022-10-01T12:58:20.699Z,1.60
2022-10-01T13:00:58.789Z,1.80
2022-10-01T13:04:03.147Z,1.77
2022-10-01T13:06:41.411Z,1.90
2022-10-01T13:09:17.620Z,1.80
2022-10-01T13:12:08.802Z,2.00
2022-10-01T13:14:38.957Z,1.83
2022-10-01T13:17:14.940Z,1.50
2022-10-01T13:19:51.164Z,1.93
2022-10-01T13:22:32.648Z,1.57
2022-10-01T13:25:09.658Z,1.73
2022-10-01T13:27:44.022Z,1.40
2022-10-01T13:30:20.021Z,1.70
2022-10-01T13:32:53.712Z,1.77
2022-10-01T13:35:25.999Z,1.40
2022-10-01T13:37:54.792Z,1.70
2022-10-01T13:40:28.683Z,1.63
2022-10-01T13:43:00.020Z,1.50
2022-10-01T13:45:34.222Z,1.40
2022-10-01T13:48:07.817Z,1.13
2022-10-01T13:50:36.183Z,1.43
2022-10-01T13:53:14.627Z,1.50
2022-10-01T13:55:45.136Z,1.60
2022-10-01T13:58:33.469Z,1.70
2022-10-01T14:01:06.026Z,1.40
2022-10-01T14:03:45.264Z,2.70
2022-10-01T14:06:20.324Z,2.20
2022-10-01T14:08:52.096Z,1.80
2022-10-01T14:11:44.046Z,2.50
2022-10-01T14:14:32.125Z,2.20
2022-10-01T14:17:01.958Z,1.53
2022-10-01T14:19:30.031Z,2.10
2022-10-01T14:22:15.099Z,2.07
2022-10-01T14:24:56.902Z,1.97
2022-10-01T14:27:32.589Z,1.70
2022-10-01T14:30:05.524Z,1.33
2022-10-01T14:33:02.415Z,1.30
2022-10-01T14:35:34.544Z,1.47
2022-10-01T14:38:06.112Z,1.37
2022-10-01T14:40:39.038Z,1.10
2022-10-01T14:43:17.286Z,1.20
2022-10-01T14:45:57.821Z,1.43
2022-10-01T14:48:29.279Z,1.10
2022-10-01T14:50:59.462Z,1.30
2022-10-01T14:53:29.621Z,1.27
2022-10-01T14:56:00.203Z,1.60
2022-10-01T14:58:31.930Z,1.30
2022-10-01T15:01:01.699Z,1.00
2022-10-01T15:03:37.729Z,1.57
2022-10-01T15:06:12.483Z,1.73
2022-10-01T15:08:42.282Z,1.60
2022-10-01T15:11:15.447Z,1.40
2022-10-01T15:13:45.763Z,1.17
2022-10-01T15:16:15.692Z,1.10
2022-10-01T15:18:49.037Z,1.60
2022-10-01T15:21:20.765Z,0.90
2022-10-01T15:23:49.767Z,1.10
2022-10-01T15:26:25.223Z,1.33
2022-10-01T15:29:03.555Z,0.90
2022-10-01T15:31:32.275Z,1.30
2022-10-01T15:34:05.460Z,1.60
2022-10-01T15:36:34.377Z,1.70
2022-10-01T15:39:03.904Z,1.50
2022-10-01T15:41:33.307Z,1.43
2022-10-01T15:44:04.425Z,1.23
2022-10-01T15:46:35.141Z,1.30
2022-10-01T15:49:19.964Z,1.40
2022-10-01T15:52:07.211Z,1.77
2022-10-01T15:54:36.498Z,1.50
2022-10-01T15:57:06.111Z,2.20
2022-10-01T15:59:35.437Z,1.40
2022-10-01T16:02:10.056Z,1.30
2022-10-01T16:04:39.469Z,1.13
2022-10-01T16:07:07.408Z,1.07
2022-10-01T16:09:35.376Z,1.20
2022-10-01T16:12:06.629Z,1.70
2022-10-01T16:14:37.559Z,1.30
2022-10-01T16:17:30.514Z,1.00
2022-10-01T16:20:01.741Z,1.37
2022-10-01T16:22:32.738Z,1.30
2022-10-01T16:25:02.075Z,1.40
2022-10-01T16:27:32.858Z,1.37
2022-10-01T16:30:05.725Z,1.13
2022-10-01T16:32:34.574Z,1.30
2022-10-01T16:35:25.664Z,1.50
2022-10-01T16:37:55.994Z,1.43
2022-10-01T16:40:25.705Z,1.37
2022-10-01T16:42:53.998Z,1.47
2022-10-01T16:45:24.639Z,1.20
2022-10-01T16:47:54.124Z,1.40
2022-10-01T16:50:23.467Z,1.67
2022-10-01T16:52:55.384Z,1.40
2022-10-01T16:55:24.931Z,1.33
2022-10-01T16:57:54.427Z,2.00
2022-10-01T17:00:24.482Z,1.50
2022-10-01T17:02:53.022Z,1.40
2022-10-01T17:05:23.250Z,2.00
2022-10-01T17:07:51.808Z,1.47
2022-10-01T17:10:23.528Z,1.50
2022-10-01T17:12:51.771Z,1.50
2022-10-01T17:15:22.321Z,1.30
2022-10-01T17:17:50.353Z,1.40
2022-10-01T17:20:18.399Z,1.30
2022-10-01T17:22:46.437Z,1.20
2022-10-01T17:25:17.159Z,1.23
2022-10-01T17:27:46.640Z,1.43
2022-10-01T17:30:14.803Z,1.60
2022-10-01T17:32:43.638Z,1.30
2022-10-01T17:35:12.692Z,1.00
2022-10-01T17:37:40.862Z,1.37
2022-10-01T17:40:11.407Z,1.10
2022-10-01T17:42:39.642Z,1.50
2022-10-01T17:45:11.347Z,1.23
2022-10-01T17:47:43.838Z,1.27
2022-10-01T17:50:12.155Z,1.23
2022-10-01T17:52:40.077Z,1.10
2022-10-01T17:55:09.121Z,0.93
2022-10-01T17:57:37.088Z,0.93
2022-10-01T18:00:05.867Z,1.30
2022-10-01T18:02:42.812Z,1.03
2022-10-01T18:05:12.499Z,0.93
2022-10-01T18:07:41.471Z,1.13
2022-10-01T18:10:12.044Z,1.20
2022-10-01T18:12:40.195Z,1.13
2022-10-01T18:15:09.676Z,1.57
2022-10-01T18:17:43.549Z,1.20
2022-10-01T18:20:15.936Z,1.00
2022-10-01T18:22:43.835Z,1.20
2022-10-01T18:25:13.871Z,1.20
2022-10-01T18:27:41.738Z,1.30
2022-10-01T18:30:10.513Z,1.30
2022-10-01T18:32:43.164Z,1.40
2022-10-01T18:35:21.585Z,1.00
2022-10-01T18:37:53.237Z,1.97
2022-10-01T18:40:24.127Z,1.47
2022-10-01T18:42:55.746Z,1.10
2022-10-01T18:45:43.197Z,1.30
2022-10-01T18:48:38.787Z,1.63
2022-10-01T18:51:18.161Z,1.70
2022-10-01T18:54:11.084Z,1.40
2022-10-01T18:56:46.619Z,1.30
2022-10-01T18:59:38.927Z,1.53
2022-10-01T19:02:22.635Z,1.30
2022-10-01T19:05:24.857Z,1.60
2022-10-01T19:08:06.983Z,1.53
2022-10-01T19:10:40.828Z,1.60
2022-10-01T19:13:18.886Z,1.30
2022-10-01T19:16:00.244Z,1.40
2022-10-01T19:18:47.206Z,1.30
2022-10-01T19:21:26.131Z,1.70
2022-10-01T19:24:18.460Z,2.00
2022-10-01T19:26:53.186Z,1.40
2022-10-01T19:29:44.409Z,1.47
2022-10-01T19:32:16.340Z,1.63
2022-10-01T19:34:47.690Z,1.73
2022-10-01T19:37:22.823Z,1.50
2022-10-01T19:39:57.106Z,1.50
2022-10-01T19:42:30.877Z,2.13
2022-10-01T19:45:04.408Z,2.03
2022-10-01T19:47:40.687Z,1.57
2022-10-01T19:50:19.865Z,1.87
2022-10-01T19:52:51.373Z,1.83
2022-10-01T19:55:23.068Z,1.90
2022-10-01T19:57:51.734Z,1.70
2022-10-01T20:00:21.763Z,1.60
2022-10-01T20:03:00.501Z,1.40
2022-10-01T20:05:30.264Z,1.87
2022-10-01T20:08:04.104Z,2.20
2022-10-01T20:10:39.497Z,2.00
2022-10-01T20:13:31.279Z,2.30
2022-10-01T20:16:09.623Z,1.67
2022-10-01T20:18:44.786Z,1.73
2022-10-01T20:21:29.644Z,2.70
2022-10-01T20:24:04.436Z,2.00
2022-10-01T20:26:41.698Z,2.07
2022-10-01T20:29:25.834Z,1.93
2022-10-01T20:32:00.251Z,1.90
2022-10-01T20:34:36.187Z,1.87
2022-10-01T20:37:13.931Z,2.00
2022-10-01T20:39:46.814Z,2.20
2022-10-01T20:42:23.509Z,2.70
2022-10-01T20:44:53.508Z,2.40
2022-10-01T20:47:28.887Z,2.83
2022-10-01T20:50:09.183Z,2.80
2022-10-01T20:52:43.745Z,2.27
2022-10-01T20:55:17.958Z,2.20
2022-10-01T20:57:51.446Z,2.43
2022-10-01T21:00:23.218Z,1.73
2022-10-01T21:02:55.425Z,2.73
2022-10-01T21:05:28.835Z,2.00
2022-10-01T21:08:02.024Z,1.57
2022-10-01T21:10:37.536Z,2.37
2022-10-01T21:13:14.230Z,2.47
2022-10-01T21:15:54.438Z,2.40
2022-10-01T21:18:35.751Z,2.33
2022-10-01T21:21:16.144Z,2.30
2022-10-01T21:23:57.309Z,2.30
2022-10-01T21:26:35.467Z,2.17
2022-10-01T21:29:24.232Z,2.50
2022-10-01T21:32:05.695Z,2.30
2022-10-01T21:34:46.382Z,2.57
2022-10-01T21:37:17.396Z,2.00
2022-10-01T21:39:54.274Z,3.07
2022-10-01T21:42:28.717Z,3.00
2022-10-01T21:45:23.648Z,3.23
2022-10-01T21:48:06.084Z,2.50
2022-10-01T21:50:49.057Z,2.00
2022-10-01T21:53:38.655Z,2.57
2022-10-01T21:56:20.435Z,2.20
2022-10-01T21:59:03.341Z,3.17
2022-10-01T22:01:47.485Z,2.60
2022-10-01T22:04:20.865Z,3.97
2022-10-01T22:06:55.265Z,2.93
2022-10-01T22:09:32.387Z,2.80
2022-10-01T22:12:03.390Z,2.43
2022-10-01T22:14:31.967Z,2.60
2022-10-01T22:17:07.300Z,2.50
2022-10-01T22:19:39.451Z,3.27
2022-10-01T22:22:12.205Z,2.70
2022-10-01T22:24:45.017Z,3.57
2022-10-01T22:27:17.651Z,3.00
2022-10-01T22:29:52.217Z,3.60
2022-10-01T22:32:25.501Z,2.57
2022-10-01T22:34:59.401Z,3.00
2022-10-01T22:37:32.264Z,3.73
2022-10-01T22:40:06.443Z,3.17
2022-10-01T22:42:38.277Z,2.90
2022-10-01T22:45:13.858Z,2.83
2022-10-01T22:47:58.051Z,3.90
2022-10-01T22:50:47.198Z,3.33
2022-10-01T22:53:29.020Z,3.00
2022-10-01T22:55:58.428Z,5.70
2022-10-01T22:58:42.030Z,3.07
2022-10-01T23:01:17.056Z,3.23
2022-10-01T23:04:05.071Z,4.00
2022-10-01T23:06:40.964Z,3.60
2022-10-01T23:09:14.487Z,4.00
2022-10-01T23:11:52.711Z,4.20
2022-10-01T23:14:39.393Z,4.00
2022-10-01T23:17:12.745Z,3.90
2022-10-01T23:19:53.832Z,4.40
2022-10-01T23:22:36.725Z,4.90
2022-10-01T23:25:16.794Z,4.40
2022-10-01T23:27:57.447Z,4.40
2022-10-01T23:30:25.733Z,5.67
2022-10-01T23:33:09.110Z,4.67
2022-10-01T23:35:48.542Z,4.80
2022-10-01T23:38:49.468Z,5.00
2022-10-01T23:41:26.239Z,5.27
2022-10-01T23:43:59.691Z,5.10
2022-10-01T23:46:32.392Z,5.47
2022-10-01T23:49:05.978Z,4.67
2022-10-01T23:51:40.677Z,5.47
2022-10-01T23:54:16.636Z,4.47
2022-10-01T23:56:49.881Z,5.00
2022-10-01T23:59:24.653Z,5.20
